Time;durP1;ratioP1;P1;durP2;ratioP2;P2;SDS_P1;SDS_P2;PMS_P1;PMS_P2;Temp;Humidity;BMP_temperature;BMP_pressure;BME280_temperature;BME280_humidity;BME280_pressure;Samples;Min_cycle;Max_cycle;Signal;HPM_P1;HPM_P2
2023/01/03 00:01:56;;;;;;;;;;;;;;;-145.06;100.00;60892.56;5918932;23;19909;-90
2023/01/03 00:04:35;;;;;;;;;;;;;;;-145.06;100.00;60892.56;5919275;23;19928;-90
2023/01/03 00:07:14;;;;;;;;;;;;;;;-145.06;100.00;60892.56;5918781;23;19913;-90
2023/01/03 00:09:53;;;;;;;;;;;;;;;-145.06;100.00;60892.56;5918293;23;19905;-91
2023/01/03 00:12:32;;;;;;;;;;;;;;;-145.06;100.00;60892.56;5917817;23;19905;-90
2023/01/03 00:15:14;;;;;;;;;;;;;;;-145.06;100.00;60892.56;5918304;23;20359;-92
2023/01/03 00:17:55;;;;;;;;;;;;;;;-145.06;100.00;60892.56;5918438;23;19924;-91
2023/01/03 00:20:33;;;;;;;;;;;;;;;-145.06;100.00;60892.56;5920256;23;19908;-91
2023/01/03 00:23:13;;;;;;;;;;;;;;;-145.06;100.00;60892.56;5919850;23;19905;-90
2023/01/03 00:25:52;;;;;;;;;;;;;;;-145.06;100.00;60892.56;5919339;23;19940;-90
2023/01/03 00:28:31;;;;;;;;;;;;;;;-145.06;100.00;60892.56;5920310;23;19909;-90
2023/01/03 00:31:11;;;;;;;;;;;;;;;-145.06;100.00;60892.56;5920210;23;19905;-89
2023/01/03 00:33:50;;;;;;;;;;;;;;;-145.06;100.00;60892.56;5919690;23;19905;-90
2023/01/03 00:36:29;;;;;;;;;;;;;;;-145.06;100.00;60892.56;5919861;23;19905;-90
2023/01/03 00:39:10;;;;;;;;;;;;;;;-145.06;100.00;60892.56;5919701;23;19909;-91
2023/01/03 00:41:49;;;;;;;;;;;;;;;-145.06;100.00;60892.56;5919518;23;19904;-90
2023/01/03 00:44:28;;;;;;;;;;;;;;;-145.06;100.00;60892.56;5920168;23;19909;-90
2023/01/03 00:47:07;;;;;;;;;;;;;;;-145.06;100.00;60892.56;5919306;23;19917;-91
2023/01/03 00:49:46;;;;;;;;;;;;;;;-145.06;100.00;60892.56;5899252;23;19904;-91
2023/01/03 00:52:25;;;;;;;;;;;;;;;-145.06;100.00;60892.56;5899059;23;19905;-90
2023/01/03 00:55:04;;;;;;;;;;;;;;;-145.06;100.00;60892.56;5897964;23;19936;-90
2023/01/03 00:57:44;;;;;;;;;;;;;;;-145.06;100.00;60892.56;5899603;23;20084;-90
2023/01/03 01:00:23;;;;;;;;;;;;;;;-145.06;100.00;60892.56;5898945;23;19909;-91
2023/01/03 01:03:02;;;;;;;;;;;;;;;-145.06;100.00;60892.56;5898701;23;19905;-90
2023/01/03 01:05:41;;;;;;;;;;;;;;;-145.06;100.00;60892.56;5899059;23;19952;-91
2023/01/03 01:08:20;;;;;;;;;;;;;;;-145.06;100.00;60892.56;5899681;23;19908;-89
2023/01/03 01:11:02;;;;;;;;;;;;;;;-145.06;100.00;60892.56;5898591;23;20292;-90
2023/01/03 01:13:42;;;;;;;;;;;;;;;-145.06;100.00;60892.56;5899750;23;19905;-91
2023/01/03 01:16:22;;;;;;;;;;;;;;;-145.06;100.00;60892.56;5898500;23;19998;-91
2023/01/03 01:19:01;;;;;;;;;;;;;;;-145.06;100.00;60892.56;5899336;23;19901;-91
2023/01/03 01:21:42;;;;;;;;;;;;;;;-145.06;100.00;60892.56;5899548;23;19905;-90
2023/01/03 01:24:21;;;;;;;;;;;;;;;-145.06;100.00;60892.56;5898526;23;19905;-89
2023/01/03 01:27:00;;;;;;;;;;;;;;;-145.06;100.00;60892.56;5899603;23;19935;-90
2023/01/03 01:29:39;;;;;;;;;;;;;;;-145.06;100.00;60892.56;5897679;23;19905;-90
2023/01/03 01:32:18;;;;;;;;;;;;;;;-145.06;100.00;60892.56;5898608;23;19905;-90
2023/01/03 01:34:56;;;;;;;;;;;;;;;-145.06;100.00;60892.56;5898904;23;19908;-90
2023/01/03 01:37:35;;;;;;;;;;;;;;;-145.06;100.00;60892.56;5897748;23;19972;-91
2023/01/03 01:40:14;;;;;;;;;;;;;;;-145.06;100.00;60892.56;5899020;23;19904;-91
2023/01/03 01:45:51;;;;;;;;;;;;;;;-145.06;100.00;60892.56;5929917;23;19908;-91
2023/01/03 01:48:30;;;;;;;;;;;;;;;-145.06;100.00;60892.56;5910818;23;20178;-91
2023/01/03 01:51:10;;;;;;;;;;;;;;;-145.06;100.00;60892.56;5918657;23;19904;-91
2023/01/03 01:53:50;;;;;;;;;;;;;;;-145.06;100.00;60892.56;5918896;23;19944;-91
2023/01/03 01:56:33;;;;;;;;;;;;;;;-145.06;100.00;60892.56;5918706;23;19905;-90
2023/01/03 01:59:12;;;;;;;;;;;;;;;-145.06;100.00;60892.56;5919313;23;19900;-91
2023/01/03 02:01:51;;;;;;;;;;;;;;;-145.06;100.00;60892.56;5920375;23;19909;-91
2023/01/03 02:04:32;;;;;;;;;;;;;;;-145.06;100.00;60892.56;5918400;23;19905;-90
2023/01/03 02:07:11;;;;;;;;;;;;;;;-145.06;100.00;60892.56;5918702;23;19909;-90
2023/01/03 02:09:53;;;;;;;;;;;;;;;-145.06;100.00;60892.56;5919737;23;20320;-90
2023/01/03 02:15:55;;;;;;;;;;;;;;;-145.06;100.00;60892.56;5930151;23;19905;-89
2023/01/03 02:18:46;;;;;;;;;;;;;;;-145.06;100.00;60892.56;5919370;23;19904;-91
2023/01/03 02:21:25;;;;;;;;;;;;;;;-145.06;100.00;60892.56;5918758;23;19905;-91
2023/01/03 02:24:30;;;;;;;;;;;;;;;-145.06;100.00;60892.56;5918358;23;19909;-91
2023/01/03 02:27:09;;;;;;;;;;;;;;;-145.06;100.00;60892.56;5918461;23;19909;-90
2023/01/03 02:30:07;;;;;;;;;;;;;;;-145.06;100.00;60892.56;5919481;23;20085;-90
2023/01/03 02:32:51;;;;;;;;;;;;;;;-145.06;100.00;60892.56;5919446;23;19905;-91
2023/01/03 02:35:33;;;;;;;;;;;;;;;-145.06;100.00;60892.56;5919035;23;19908;-92
2023/01/03 02:38:24;;;;;;;;;;;;;;;-145.06;100.00;60892.56;5919322;23;19904;-91
2023/01/03 02:41:19;;;;;;;;;;;;;;;-145.06;100.00;60892.56;5918136;23;19904;-90
2023/01/03 02:44:16;;;;;;;;;;;;;;;-145.06;100.00;60892.56;5919607;23;19905;-90
2023/01/03 02:47:02;;;;;;;;;;;;;;;-145.06;100.00;60892.56;5920704;23;19913;-91
2023/01/03 02:49:51;;;;;;;;;;;;;;;-145.06;100.00;60892.56;5916853;23;19937;-91
2023/01/03 02:52:31;;;;;;;;;;;;;;;-145.06;100.00;60892.56;5905225;23;19913;-92
2023/01/03 02:55:19;;;;;;;;;;;;;;;-145.06;100.00;60892.56;5897949;23;19972;-92
2023/01/03 02:58:03;;;;;;;;;;;;;;;-145.06;100.00;60892.56;5897857;23;19908;-91
2023/01/03 03:00:44;;;;;;;;;;;;;;;-145.06;100.00;60892.56;5898803;23;20217;-90
2023/01/03 03:03:26;;;;;;;;;;;;;;;-145.06;100.00;60892.56;5897522;23;19909;-90
2023/01/03 03:06:26;;;;;;;;;;;;;;;-145.06;100.00;60892.56;5897238;23;19909;-90
2023/01/03 03:09:06;;;;;;;;;;;;;;;-145.06;100.00;60892.56;5898131;23;19944;-91
2023/01/03 03:14:51;;;;;;;;;;;;;;;-145.06;100.00;60892.56;5929492;23;20455;-91
2023/01/03 03:17:30;;;;;;;;;;;;;;;-145.06;100.00;60892.56;5897684;23;19928;-91
2023/01/03 03:26:16;;;;;;;;;;;;;;;-145.06;100.00;60892.56;5928521;23;19913;-90
2023/01/03 03:28:59;;;;;;;;;;;;;;;-145.06;100.00;60892.56;5898453;23;19901;-88
2023/01/03 03:31:39;;;;;;;;;;;;;;;-145.06;100.00;60892.56;5897239;23;19905;-90
2023/01/03 03:34:30;;;;;;;;;;;;;;;-145.06;100.00;60892.56;5898561;23;19925;-91
2023/01/03 03:37:13;;;;;;;;;;;;;;;-145.06;100.00;60892.56;5896839;23;19936;-90
2023/01/03 03:46:01;;;;;;;;;;;;;;;-145.06;100.00;60892.56;5928866;23;19909;-90
2023/01/03 03:51:42;;;;;;;;;;;;;;;-145.06;100.00;60892.56;5928763;23;19904;-90
2023/01/03 03:54:22;;;;;;;;;;;;;;;-145.06;100.00;60892.56;5920166;23;20316;-89
2023/01/03 03:57:09;;;;;;;;;;;;;;;-145.06;100.00;60892.56;5919608;23;19905;-92
2023/01/03 03:59:51;;;;;;;;;;;;;;;-145.06;100.00;60892.56;5920366;23;20304;-92
2023/01/03 04:02:31;;;;;;;;;;;;;;;-145.06;100.00;60892.56;5920468;23;19905;-91
2023/01/03 04:05:13;;;;;;;;;;;;;;;-145.06;100.00;60892.56;5919728;23;20221;-91
2023/01/03 04:07:52;;;;;;;;;;;;;;;-145.06;100.00;60892.56;5919563;23;19908;-91
2023/01/03 04:10:31;;;;;;;;;;;;;;;-145.06;100.00;60892.56;5920938;23;19905;-91
2023/01/03 04:13:10;;;;;;;;;;;;;;;-145.06;100.00;60892.56;5919592;23;20484;-90
2023/01/03 04:15:49;;;;;;;;;;;;;;;-145.06;100.00;60892.56;5919883;23;20228;-91
2023/01/03 04:18:28;;;;;;;;;;;;;;;-145.06;100.00;60892.56;5919572;23;19909;-90
2023/01/03 04:21:07;;;;;;;;;;;;;;;-145.06;100.00;60892.56;5919427;23;20225;-90
2023/01/03 04:23:46;;;;;;;;;;;;;;;-145.06;100.00;60892.56;5919987;23;19928;-91
2023/01/03 04:26:25;;;;;;;;;;;;;;;-145.06;100.00;60892.56;5920310;23;19908;-90
2023/01/03 04:29:04;;;;;;;;;;;;;;;-145.06;100.00;60892.56;5920210;23;19905;-92
2023/01/03 04:31:43;;;;;;;;;;;;;;;-145.06;100.00;60892.56;5919417;23;19909;-90
2023/01/03 04:34:22;;;;;;;;;;;;;;;-145.06;100.00;60892.56;5920004;23;19909;-91
2023/01/03 04:37:00;;;;;;;;;;;;;;;-145.06;100.00;60892.56;5919511;23;19908;-89
2023/01/03 04:39:39;;;;;;;;;;;;;;;-145.06;100.00;60892.56;5919993;23;19909;-89
2023/01/03 04:45:16;;;;;;;;;;;;;;;-145.06;100.00;60892.56;5929596;23;19913;-90
2023/01/03 04:47:55;;;;;;;;;;;;;;;-145.06;100.00;60892.56;5918381;23;19908;-90
2023/01/03 04:50:34;;;;;;;;;;;;;;;-145.06;100.00;60892.56;5919520;23;19908;-90
2023/01/03 04:53:13;;;;;;;;;;;;;;;-145.06;100.00;60892.56;5919394;23;19905;-90
2023/01/03 04:55:53;;;;;;;;;;;;;;;-145.06;100.00;60892.56;5919623;23;20328;-91
2023/01/03 04:58:32;;;;;;;;;;;;;;;-145.06;100.00;60892.56;5919435;23;20320;-89
2023/01/03 05:01:11;;;;;;;;;;;;;;;-145.06;100.00;60892.56;5919040;23;19980;-89
2023/01/03 05:03:50;;;;;;;;;;;;;;;-145.06;100.00;60892.56;5919530;23;20355;-90
2023/01/03 05:06:29;;;;;;;;;;;;;;;-145.06;100.00;60892.56;5919839;23;20351;-89
2023/01/03 05:09:08;;;;;;;;;;;;;;;-145.06;100.00;60892.56;5921662;23;19901;-90
2023/01/03 05:11:47;;;;;;;;;;;;;;;-145.06;100.00;60892.56;5919921;23;19909;-92
2023/01/03 05:14:26;;;;;;;;;;;;;;;-145.06;100.00;60892.56;5918118;23;19928;-90
2023/01/03 05:17:05;;;;;;;;;;;;;;;-145.06;100.00;60892.56;5916741;23;20208;-91
2023/01/03 05:25:50;;;;;;;;;;;;;;;-145.06;100.00;60892.56;5929471;23;19909;-90
2023/01/03 05:28:29;;;;;;;;;;;;;;;-145.06;100.00;60892.56;5916990;23;20247;-91
2023/01/03 05:31:08;;;;;;;;;;;;;;;-145.06;100.00;60892.56;5918793;23;19908;-89
2023/01/03 05:33:47;;;;;;;;;;;;;;;-145.06;100.00;60892.56;5918024;23;19912;-90
2023/01/03 05:36:25;;;;;;;;;;;;;;;-145.06;100.00;60892.56;5918624;23;19933;-89
2023/01/03 05:39:06;;;;;;;;;;;;;;;-145.06;100.00;60892.56;5920188;23;19901;-91
2023/01/03 05:42:00;;;;;;;;;;;;;;;-145.06;100.00;60892.56;5937654;23;19901;-90
2023/01/03 05:44:39;;;;;;;;;;;;;;;-145.06;100.00;60892.56;5927013;23;19917;-90
2023/01/03 05:47:19;;;;;;;;;;;;;;;-145.06;100.00;60892.56;5917080;23;20327;-89
2023/01/03 05:49:58;;;;;;;;;;;;;;;-145.06;100.00;60892.56;5898216;23;19901;-91
2023/01/03 05:52:37;;;;;;;;;;;;;;;-145.06;100.00;60892.56;5897629;23;19908;-89
2023/01/03 05:55:16;;;;;;;;;;;;;;;-145.06;100.00;60892.56;5897873;23;19944;-90
2023/01/03 05:57:55;;;;;;;;;;;;;;;-145.06;100.00;60892.56;5897825;23;19960;-92
2023/01/03 06:00:34;;;;;;;;;;;;;;;-145.06;100.00;60892.56;5897213;23;19944;-91
2023/01/03 06:03:13;;;;;;;;;;;;;;;-145.06;100.00;60892.56;5897545;23;19905;-90
2023/01/03 06:05:52;;;;;;;;;;;;;;;-145.06;100.00;60892.56;5897757;23;19908;-89
2023/01/03 06:08:32;;;;;;;;;;;;;;;-145.06;100.00;60892.56;5897516;23;19909;-90
2023/01/03 06:11:12;;;;;;;;;;;;;;;-145.06;100.00;60892.56;5898211;23;19905;-90
2023/01/03 06:13:51;;;;;;;;;;;;;;;-145.06;100.00;60892.56;5898101;23;19908;-90
2023/01/03 06:19:28;;;;;;;;;;;;;;;-145.06;100.00;60892.56;5928711;23;20304;-90
2023/01/03 06:22:07;;;;;;;;;;;;;;;-145.06;100.00;60892.56;5896953;23;19956;-89
2023/01/03 06:24:46;;;;;;;;;;;;;;;-145.06;100.00;60892.56;5897377;23;19917;-90
2023/01/03 06:27:25;;;;;;;;;;;;;;;-145.06;100.00;60892.56;5897020;23;19909;-89
2023/01/03 06:30:05;;;;;;;;;;;;;;;-145.06;100.00;60892.56;5898520;23;20312;-89
2023/01/03 06:32:44;;;;;;;;;;;;;;;-145.06;100.00;60892.56;5898088;23;19905;-90
2023/01/03 06:35:23;;;;;;;;;;;;;;;-145.06;100.00;60892.56;5898129;23;20352;-90
2023/01/03 06:38:02;;;;;;;;;;;;;;;-145.06;100.00;60892.56;5897332;23;19972;-89
2023/01/03 06:40:46;;;;;;;;;;;;;;;-145.06;100.00;60892.56;5898660;23;19904;-88
2023/01/03 06:43:25;;;;;;;;;;;;;;;-145.06;100.00;60892.56;5895674;23;19909;-89
2023/01/03 06:55:10;;;;;;;;;;;;;;;-145.06;100.00;60892.56;5928201;23;20254;-91
2023/01/03 06:57:49;;;;;;;;;;;;;;;-145.06;100.00;60892.56;5897757;23;19905;-90
2023/01/03 07:00:29;;;;;;;;;;;;;;;-145.06;100.00;60892.56;5896813;23;19905;-91
2023/01/03 07:03:08;;;;;;;;;;;;;;;-145.06;100.00;60892.56;5896478;23;20018;-90
2023/01/03 07:05:47;;;;;;;;;;;;;;;-145.06;100.00;60892.56;5896765;23;19913;-90
2023/01/03 07:08:26;;;;;;;;;;;;;;;-145.06;100.00;60892.56;5896187;23;20222;-90
2023/01/03 07:11:05;;;;;;;;;;;;;;;-145.06;100.00;60892.56;5896402;23;19905;-89
2023/01/03 07:13:59;;;;;;;;;;;;;;;-145.06;100.00;60892.56;5896791;23;19904;-90
2023/01/03 07:16:42;;;;;;;;;;;;;;;-145.06;100.00;60892.56;5895212;23;20084;-90
2023/01/03 07:19:21;;;;;;;;;;;;;;;-145.06;100.00;60892.56;5896891;23;19904;-89
2023/01/03 07:22:01;;;;;;;;;;;;;;;-145.06;100.00;60892.56;5897171;23;19908;-91
2023/01/03 07:24:39;;;;;;;;;;;;;;;-145.06;100.00;60892.56;5896205;23;19908;-90
2023/01/03 07:27:18;;;;;;;;;;;;;;;-145.06;100.00;60892.56;5897149;23;19956;-90
2023/01/03 07:29:57;;;;;;;;;;;;;;;-145.06;100.00;60892.56;5899322;23;19909;-89
2023/01/03 07:32:36;;;;;;;;;;;;;;;-145.06;100.00;60892.56;5898464;23;19909;-90
2023/01/03 07:35:15;;;;;;;;;;;;;;;-145.06;100.00;60892.56;5898525;23;19981;-90
2023/01/03 07:37:54;;;;;;;;;;;;;;;-145.06;100.00;60892.56;5896939;23;19909;-90
2023/01/03 07:40:33;;;;;;;;;;;;;;;-145.06;100.00;60892.56;5897404;23;19904;-90
2023/01/03 07:43:46;;;;;;;;;;;;;;;-145.06;100.00;60892.56;5897300;23;19909;-89
2023/01/03 07:46:19;;;;;;;;;;;;;;;-145.06;100.00;60892.56;5917327;23;19912;-89
2023/01/03 07:49:01;;;;;;;;;;;;;;;-145.06;100.00;60892.56;5913623;23;19909;-89
2023/01/03 07:51:40;;;;;;;;;;;;;;;-145.06;100.00;60892.56;5918305;23;19913;-89
2023/01/03 07:54:19;;;;;;;;;;;;;;;-145.06;100.00;60892.56;5919145;23;19905;-88
2023/01/03 07:56:58;;;;;;;;;;;;;;;-145.06;100.00;60892.56;5918748;23;20312;-88
2023/01/03 07:59:37;;;;;;;;;;;;;;;-145.06;100.00;60892.56;5919139;23;19913;-90
2023/01/03 08:02:18;;;;;;;;;;;;;;;-145.06;100.00;60892.56;5918589;23;19905;-89
2023/01/03 08:04:56;;;;;;;;;;;;;;;-145.06;100.00;60892.56;5920090;23;19936;-89
2023/01/03 08:07:36;;;;;;;;;;;;;;;-145.06;100.00;60892.56;5919039;23;19909;-91
2023/01/03 08:13:16;;;;;;;;;;;;;;;-145.06;100.00;60892.56;5928086;23;19905;-88
2023/01/03 08:15:55;;;;;;;;;;;;;;;-145.06;100.00;60892.56;5917671;23;19929;-90
2023/01/03 08:18:35;;;;;;;;;;;;;;;-145.06;100.00;60892.56;5917769;23;19909;-89
2023/01/03 08:21:14;;;;;;;;;;;;;;;-145.06;100.00;60892.56;5917419;23;20236;-88
2023/01/03 08:23:53;;;;;;;;;;;;;;;-145.06;100.00;60892.56;5913150;23;19909;-88
2023/01/03 08:26:32;;;;;;;;;;;;;;;-145.06;100.00;60892.56;5918960;23;19909;-90
2023/01/03 08:29:12;;;;;;;;;;;;;;;-145.06;100.00;60892.56;5919290;23;19908;-89
2023/01/03 08:31:55;;;;;;;;;;;;;;;-145.06;100.00;60892.56;5930026;23;19921;-90
2023/01/03 08:34:36;;;;;;;;;;;;;;;-145.06;100.00;60892.56;5932424;23;19917;-90
2023/01/03 08:37:15;;;;;;;;;;;;;;;-145.06;100.00;60892.56;5916330;23;19909;-91
2023/01/03 08:39:58;;;;;;;;;;;;;;;-145.06;100.00;60892.56;5916230;23;19909;-90
2023/01/03 08:42:37;;;;;;;;;;;;;;;-145.06;100.00;60892.56;5917091;23;20221;-90
2023/01/03 08:45:16;;;;;;;;;;;;;;;-145.06;100.00;60892.56;5916400;23;19913;-89
2023/01/03 08:47:57;;;;;;;;;;;;;;;-145.06;100.00;60892.56;5915470;23;19913;-90
2023/01/03 08:50:36;;;;;;;;;;;;;;;-145.06;100.00;60892.56;5916253;23;19905;-91
2023/01/03 08:53:15;;;;;;;;;;;;;;;-145.06;100.00;60892.56;5916049;23;19909;-89
2023/01/03 08:55:55;;;;;;;;;;;;;;;-145.06;100.00;60892.56;5915686;23;19908;-90
2023/01/03 08:58:34;;;;;;;;;;;;;;;-145.06;100.00;60892.56;5917803;23;19949;-91
2023/01/03 09:01:13;;;;;;;;;;;;;;;-145.06;100.00;60892.56;5916359;23;19905;-90
2023/01/03 09:03:52;;;;;;;;;;;;;;;-145.06;100.00;60892.56;5916949;23;19976;-89
2023/01/03 09:06:31;;;;;;;;;;;;;;;-145.06;100.00;60892.56;5915966;23;19912;-90
2023/01/03 09:09:10;;;;;;;;;;;;;;;-145.06;100.00;60892.56;5917566;23;19901;-92
2023/01/03 09:11:49;;;;;;;;;;;;;;;-145.06;100.00;60892.56;5917100;23;19905;-92
2023/01/03 09:14:29;;;;;;;;;;;;;;;-145.06;100.00;60892.56;5918426;23;19976;-90
2023/01/03 09:17:08;;;;;;;;;;;;;;;-145.06;100.00;60892.56;5916926;23;19905;-91
2023/01/03 09:19:47;;;;;;;;;;;;;;;-145.06;100.00;60892.56;5918165;23;19913;-91
2023/01/03 09:22:26;;;;;;;;;;;;;;;-145.06;100.00;60892.56;5917409;23;20217;-90
2023/01/03 09:25:06;;;;;;;;;;;;;;;-145.06;100.00;60892.56;5916847;23;19909;-91
2023/01/03 09:27:48;;;;;;;;;;;;;;;-145.06;100.00;60892.56;5918131;23;19909;-90
2023/01/03 09:30:27;;;;;;;;;;;;;;;-145.06;100.00;60892.56;5918349;23;19909;-92
2023/01/03 09:33:06;;;;;;;;;;;;;;;-145.06;100.00;60892.56;5918332;23;20229;-90
2023/01/03 09:35:45;;;;;;;;;;;;;;;-145.06;100.00;60892.56;5917500;23;19909;-90
2023/01/03 09:38:27;;;;;;;;;;;;;;;-145.06;100.00;60892.56;5916397;23;20387;-90
2023/01/03 09:41:17;;;;;;;;;;;;;;;-145.06;100.00;60892.56;5918013;23;19908;-91
2023/01/03 09:44:00;;;;;;;;;;;;;;;-145.06;100.00;60892.56;5917641;23;19905;-91
2023/01/03 09:46:39;;;;;;;;;;;;;;;-145.06;100.00;60892.56;5916974;23;19987;-89
2023/01/03 09:49:19;;;;;;;;;;;;;;;-145.06;100.00;60892.56;5868529;23;19913;-89
2023/01/03 10:04:10;;;;;;;;;;;;;;;-145.06;100.00;60892.56;5898395;23;19909;-90
2023/01/03 10:06:54;;;;;;;;;;;;;;;-145.06;100.00;60892.56;5867472;23;19909;-90
2023/01/03 10:09:42;;;;;;;;;;;;;;;-145.06;100.00;60892.56;5867921;23;20225;-91
2023/01/03 10:12:24;;;;;;;;;;;;;;;-145.06;100.00;60892.56;5868383;23;19905;-91
2023/01/03 10:15:18;;;;;;;;;;;;;;;-145.06;100.00;60892.56;5868774;23;19909;-92
2023/01/03 10:18:13;;;;;;;;;;;;;;;-145.06;100.00;60892.56;5868285;23;19933;-90
2023/01/03 10:20:58;;;;;;;;;;;;;;;-145.06;100.00;60892.56;5868510;23;19906;-91
2023/01/03 10:23:37;;;;;;;;;;;;;;;-145.06;100.00;60892.56;5867236;23;19917;-90
2023/01/03 10:26:17;;;;;;;;;;;;;;;-145.06;100.00;60892.56;5867342;23;19909;-90
2023/01/03 10:28:56;;;;;;;;;;;;;;;-145.06;100.00;60892.56;5868666;23;19905;-89
2023/01/03 10:31:56;;;;;;;;;;;;;;;-145.06;100.00;60892.56;5868442;23;19905;-90
2023/01/03 10:34:39;;;;;;;;;;;;;;;-145.06;100.00;60892.56;5868580;23;19905;-90
2023/01/03 10:37:18;;;;;;;;;;;;;;;-145.06;100.00;60892.56;5867543;23;19905;-90
2023/01/03 10:40:02;;;;;;;;;;;;;;;-145.06;100.00;60892.56;5870190;23;19913;-89
2023/01/03 10:42:42;;;;;;;;;;;;;;;-145.06;100.00;60892.56;5869429;23;19909;-89
2023/01/03 10:45:21;;;;;;;;;;;;;;;-145.06;100.00;60892.56;5869218;23;19949;-91
2023/01/03 10:48:00;;;;;;;;;;;;;;;-145.06;100.00;60892.56;5888507;23;19913;-90
2023/01/03 10:50:39;;;;;;;;;;;;;;;-145.06;100.00;60892.56;5918642;23;20137;-90
2023/01/03 10:53:19;;;;;;;;;;;;;;;-145.06;100.00;60892.56;5918197;23;19908;-90
2023/01/03 10:56:01;;;;;;;;;;;;;;;-145.06;100.00;60892.56;5918240;23;19909;-88
2023/01/03 10:58:40;;;;;;;;;;;;;;;-145.06;100.00;60892.56;5917319;23;19905;-90
2023/01/03 11:01:21;;;;;;;;;;;;;;;-145.06;100.00;60892.56;5916453;23;20313;-90
2023/01/03 11:04:18;;;;;;;;;;;;;;;-145.06;100.00;60892.56;5916871;23;20320;-89
2023/01/03 11:06:59;;;;;;;;;;;;;;;-145.06;100.00;60892.56;5916574;23;19983;-89
2023/01/03 11:09:41;;;;;;;;;;;;;;;-145.06;100.00;60892.56;5916940;23;20316;-90
2023/01/03 11:12:23;;;;;;;;;;;;;;;-145.06;100.00;60892.56;5916452;23;20303;-89
2023/01/03 11:15:21;;;;;;;;;;;;;;;-145.06;100.00;60892.56;5917838;23;19980;-90
2023/01/03 11:18:02;;;;;;;;;;;;;;;-145.06;100.00;60892.56;5917281;23;19909;-90
2023/01/03 11:20:45;;;;;;;;;;;;;;;-145.06;100.00;60892.56;5919444;23;19908;-90
2023/01/03 11:23:37;;;;;;;;;;;;;;;-145.06;100.00;60892.56;5921816;23;20308;-90
2023/01/03 11:26:16;;;;;;;;;;;;;;;-145.06;100.00;60892.56;5935408;23;19901;-90
2023/01/03 11:28:58;;;;;;;;;;;;;;;-145.06;100.00;60892.56;5932571;23;19913;-90
2023/01/03 11:31:43;;;;;;;;;;;;;;;-145.06;100.00;60892.56;5916585;23;19908;-88
2023/01/03 11:34:31;;;;;;;;;;;;;;;-145.06;100.00;60892.56;5916169;23;19928;-90
2023/01/03 11:37:11;;;;;;;;;;;;;;;-145.06;100.00;60892.56;5915803;23;19924;-90
2023/01/03 11:39:50;;;;;;;;;;;;;;;-145.06;100.00;60892.56;5916047;23;19924;-89
2023/01/03 11:42:38;;;;;;;;;;;;;;;-145.06;100.00;60892.56;5914657;23;19904;-90
2023/01/03 11:45:26;;;;;;;;;;;;;;;-145.06;100.00;60892.56;5914856;23;19909;-90
2023/01/03 11:48:11;;;;;;;;;;;;;;;-145.06;100.00;60892.56;5915233;23;19917;-90
2023/01/03 11:51:10;;;;;;;;;;;;;;;-145.06;100.00;60892.56;5915075;23;19909;-90
2023/01/03 11:54:09;;;;;;;;;;;;;;;-145.06;100.00;60892.56;5916015;23;19920;-90
2023/01/03 11:56:49;;;;;;;;;;;;;;;-145.06;100.00;60892.56;5914627;23;19905;-89
2023/01/03 11:59:43;;;;;;;;;;;;;;;-145.06;100.00;60892.56;5914303;23;19909;-89
2023/01/03 12:02:45;;;;;;;;;;;;;;;-145.06;100.00;60892.56;5915766;23;19913;-90
2023/01/03 12:05:38;;;;;;;;;;;;;;;-145.06;100.00;60892.56;5926028;23;19974;-89
2023/01/03 12:08:17;;;;;;;;;;;;;;;-145.06;100.00;60892.56;5915359;23;19936;-89
2023/01/03 12:10:56;;;;;;;;;;;;;;;-145.06;100.00;60892.56;5914877;23;19909;-89
2023/01/03 12:13:46;;;;;;;;;;;;;;;-145.06;100.00;60892.56;5915627;23;19909;-90
2023/01/03 12:16:38;;;;;;;;;;;;;;;-145.06;100.00;60892.56;5916972;23;20205;-88
2023/01/03 12:19:28;;;;;;;;;;;;;;;-145.06;100.00;60892.56;5916703;23;19905;-89
2023/01/03 12:22:26;;;;;;;;;;;;;;;-145.06;100.00;60892.56;5915879;23;19946;-89
2023/01/03 12:25:26;;;;;;;;;;;;;;;-145.06;100.00;60892.56;5915750;23;19905;-89
2023/01/03 12:28:21;;;;;;;;;;;;;;;-145.06;100.00;60892.56;5916412;23;19909;-88
2023/01/03 12:31:16;;;;;;;;;;;;;;;-145.06;100.00;60892.56;5915697;23;19909;-90
2023/01/03 12:34:02;;;;;;;;;;;;;;;-145.06;100.00;60892.56;5917402;23;19909;-89
2023/01/03 12:36:44;;;;;;;;;;;;;;;-145.06;100.00;60892.56;5915861;23;19905;-90
2023/01/03 12:39:29;;;;;;;;;;;;;;;-145.06;100.00;60892.56;5918955;23;19932;-89
2023/01/03 12:42:20;;;;;;;;;;;;;;;-145.06;100.00;60892.56;5917870;23;19908;-90
2023/01/03 12:45:16;;;;;;;;;;;;;;;-145.06;100.00;60892.56;5916086;23;19987;-90
2023/01/03 12:48:04;;;;;;;;;;;;;;;-145.06;100.00;60892.56;5916341;23;19909;-91
2023/01/03 12:50:47;;;;;;;;;;;;;;;-145.06;100.00;60892.56;5915615;23;19909;-90
2023/01/03 12:53:37;;;;;;;;;;;;;;;-145.06;100.00;60892.56;5915262;23;19908;-90
2023/01/03 12:56:19;;;;;;;;;;;;;;;-145.06;100.00;60892.56;5916949;23;19905;-90
2023/01/03 12:59:02;;;;;;;;;;;;;;;-145.06;100.00;60892.56;5915873;23;19905;-92
2023/01/03 13:01:47;;;;;;;;;;;;;;;-145.06;100.00;60892.56;5916321;23;20225;-91
2023/01/03 13:04:37;;;;;;;;;;;;;;;-145.06;100.00;60892.56;5914725;23;19908;-91
2023/01/03 13:07:31;;;;;;;;;;;;;;;-145.06;100.00;60892.56;5915660;23;19924;-91
2023/01/03 13:10:14;;;;;;;;;;;;;;;-145.06;100.00;60892.56;5927799;23;19913;-89
2023/01/03 13:12:53;;;;;;;;;;;;;;;-145.06;100.00;60892.56;5917060;23;19904;-90
2023/01/03 13:15:33;;;;;;;;;;;;;;;-145.06;100.00;60892.56;5917024;23;19909;-89
2023/01/03 13:18:16;;;;;;;;;;;;;;;-145.06;100.00;60892.56;5915767;23;19905;-90
2023/01/03 13:20:55;;;;;;;;;;;;;;;-145.06;100.00;60892.56;5916075;23;19909;-89
2023/01/03 13:23:36;;;;;;;;;;;;;;;-145.06;100.00;60892.56;5915237;23;19905;-88
2023/01/03 13:26:15;;;;;;;;;;;;;;;-145.06;100.00;60892.56;5913777;23;19932;-89
2023/01/03 13:29:13;;;;;;;;;;;;;;;-145.06;100.00;60892.56;5914854;23;20634;-89
2023/01/03 13:32:11;;;;;;;;;;;;;;;-145.06;100.00;60892.56;5915869;23;19905;-89
2023/01/03 13:35:10;;;;;;;;;;;;;;;-145.06;100.00;60892.56;5915631;23;19908;-88
2023/01/03 13:37:50;;;;;;;;;;;;;;;-145.06;100.00;60892.56;5911396;23;19905;-89
2023/01/03 13:40:31;;;;;;;;;;;;;;;-145.06;100.00;60892.56;5915134;23;19905;-89
2023/01/03 13:43:21;;;;;;;;;;;;;;;-145.06;100.00;60892.56;5916217;23;19909;-90
2023/01/03 13:46:05;;;;;;;;;;;;;;;-145.06;100.00;60892.56;5915394;23;19908;-88
2023/01/03 13:49:04;;;;;;;;;;;;;;;-145.06;100.00;60892.56;5915186;23;19917;-90
2023/01/03 13:51:44;;;;;;;;;;;;;;;-145.06;100.00;60892.56;5913991;23;19928;-88
2023/01/03 13:54:52;;;;;;;;;;;;;;;-145.06;100.00;60892.56;5913969;23;19936;-89
2023/01/03 13:57:36;;;;;;;;;;;;;;;-145.06;100.00;60892.56;5914493;23;19920;-90
2023/01/03 14:00:17;;;;;;;;;;;;;;;-145.06;100.00;60892.56;5913690;23;19909;-90
2023/01/03 14:03:16;;;;;;;;;;;;;;;-145.06;100.00;60892.56;5913484;23;19940;-89
2023/01/03 14:06:21;;;;;;;;;;;;;;;-145.06;100.00;60892.56;5915019;23;19905;-89
2023/01/03 14:09:26;;;;;;;;;;;;;;;-145.06;100.00;60892.56;5899101;23;19908;-89
2023/01/03 14:12:20;;;;;;;;;;;;;;;-145.06;100.00;60892.56;5915569;23;19949;-88
2023/01/03 14:15:06;;;;;;;;;;;;;;;-145.06;100.00;60892.56;5914983;23;19909;-89
2023/01/03 14:17:47;;;;;;;;;;;;;;;-145.06;100.00;60892.56;5916136;23;19932;-89
2023/01/03 14:20:30;;;;;;;;;;;;;;;-145.06;100.00;60892.56;5916488;23;19980;-91
2023/01/03 14:23:10;;;;;;;;;;;;;;;-145.06;100.00;60892.56;5918054;23;19932;-89
2023/01/03 14:25:49;;;;;;;;;;;;;;;-145.06;100.00;60892.56;5920406;23;19909;-91
2023/01/03 14:28:31;;;;;;;;;;;;;;;-145.06;100.00;60892.56;5933396;23;19901;-90
2023/01/03 14:31:17;;;;;;;;;;;;;;;-145.06;100.00;60892.56;5924669;23;19917;-89
2023/01/03 14:33:57;;;;;;;;;;;;;;;-145.06;100.00;60892.56;5914792;23;19908;-89
2023/01/03 14:36:43;;;;;;;;;;;;;;;-145.06;100.00;60892.56;5915238;23;19905;-90